Time;durP1;ratioP1;P1;durP2;ratioP2;P2;SDS_P1;SDS_P2;PMS_P1;PMS_P2;Temp;Humidity;BMP_temperature;BMP_pressure;BME280_temperature;BME280_humidity;BME280_pressure;Samples;Min_cycle;Max_cycle;Signal;HPM_P1;HPM_P2
2024/02/23 00:02:15;;;;;;;55.90;2.40;;;;;;;;;;5074522;28;20443;-70
2024/02/23 00:04:42;;;;;;;55.57;2.43;;;;;;;;;;5074076;28;20459;-68
2024/02/23 00:07:09;;;;;;;56.10;2.40;;;;;;;;;;5074442;28;20469;-69
2024/02/23 00:09:37;;;;;;;55.60;2.53;;;;;;;;;;5073805;28;20939;-68
2024/02/23 00:12:04;;;;;;;56.37;2.50;;;;;;;;;;5073559;28;20444;-68
2024/02/23 00:14:32;;;;;;;55.80;2.23;;;;;;;;;;5073717;28;20983;-69
2024/02/23 00:17:01;;;;;;;56.97;2.53;;;;;;;;;;5074097;28;20562;-69
2024/02/23 00:19:28;;;;;;;56.90;2.57;;;;;;;;;;5073911;28;20483;-68
2024/02/23 00:21:55;;;;;;;56.37;2.70;;;;;;;;;;5073758;28;20935;-69
2024/02/23 00:24:22;;;;;;;56.00;2.47;;;;;;;;;;5073449;28;20456;-68
2024/02/23 00:26:51;;;;;;;57.73;3.03;;;;;;;;;;5073908;28;20467;-69
2024/02/23 00:29:18;;;;;;;58.80;2.63;;;;;;;;;;5074061;28;20821;-69
2024/02/23 00:31:46;;;;;;;55.57;2.47;;;;;;;;;;5073773;28;20460;-68
2024/02/23 00:34:14;;;;;;;55.70;2.70;;;;;;;;;;5073468;28;20482;-68
2024/02/23 00:36:42;;;;;;;57.20;2.20;;;;;;;;;;5073514;28;20464;-69
2024/02/23 00:39:09;;;;;;;56.00;2.50;;;;;;;;;;5073436;28;20690;-68
2024/02/23 00:41:36;;;;;;;55.40;2.47;;;;;;;;;;5073346;28;20948;-68
2024/02/23 00:44:04;;;;;;;57.20;2.50;;;;;;;;;;5073369;28;20444;-70
2024/02/23 00:46:31;;;;;;;55.77;2.53;;;;;;;;;;5073380;28;20991;-70
2024/02/23 00:48:58;;;;;;;55.60;2.50;;;;;;;;;;5073409;28;20453;-70
2024/02/23 00:51:26;;;;;;;56.37;2.47;;;;;;;;;;5073088;28;20448;-70
2024/02/23 00:53:54;;;;;;;56.17;2.40;;;;;;;;;;5053310;28;20451;-71
2024/02/23 00:56:21;;;;;;;57.40;2.67;;;;;;;;;;5053489;28;20496;-69
2024/02/23 00:58:48;;;;;;;56.47;2.53;;;;;;;;;;5053282;28;20488;-69
2024/02/23 01:01:16;;;;;;;56.47;2.70;;;;;;;;;;5053279;28;20454;-70
2024/02/23 01:03:43;;;;;;;55.97;2.30;;;;;;;;;;5052974;28;20499;-69
2024/02/23 01:06:10;;;;;;;56.47;2.47;;;;;;;;;;5053245;28;20476;-70
2024/02/23 01:08:40;;;;;;;55.80;2.30;;;;;;;;;;5052897;28;20451;-69
2024/02/23 01:11:07;;;;;;;58.27;2.63;;;;;;;;;;5053066;28;20453;-69
2024/02/23 01:13:34;;;;;;;56.10;2.50;;;;;;;;;;5052468;28;20458;-71
2024/02/23 01:16:01;;;;;;;57.17;2.43;;;;;;;;;;5052994;28;20473;-70
2024/02/23 01:18:28;;;;;;;57.57;2.50;;;;;;;;;;5052616;28;20485;-70
2024/02/23 01:20:55;;;;;;;58.27;3.00;;;;;;;;;;5053055;28;20446;-69
2024/02/23 01:23:22;;;;;;;56.27;2.13;;;;;;;;;;5052663;28;20449;-71
2024/02/23 01:25:51;;;;;;;57.50;2.60;;;;;;;;;;5053060;28;20836;-70
2024/02/23 01:28:18;;;;;;;63.30;2.90;;;;;;;;;;5052927;28;20452;-69
2024/02/23 01:30:45;;;;;;;57.50;2.80;;;;;;;;;;5052545;28;20456;-70
2024/02/23 01:33:12;;;;;;;57.50;2.80;;;;;;;;;;5052382;28;20484;-69
2024/02/23 01:35:39;;;;;;;58.10;3.03;;;;;;;;;;5052480;28;20992;-70
2024/02/23 01:38:06;;;;;;;55.60;2.30;;;;;;;;;;5052537;28;20480;-70
2024/02/23 01:40:33;;;;;;;56.63;2.33;;;;;;;;;;5052493;28;20446;-70
2024/02/23 01:43:06;;;;;;;56.00;2.30;;;;;;;;;;5052395;28;20456;-70
2024/02/23 01:45:33;;;;;;;57.20;2.20;;;;;;;;;;5052356;28;20916;-70
2024/02/23 01:48:00;;;;;;;55.70;2.50;;;;;;;;;;5052591;28;20449;-70
2024/02/23 01:50:28;;;;;;;56.00;2.30;;;;;;;;;;5052406;28;20452;-70
2024/02/23 01:52:57;;;;;;;58.00;2.33;;;;;;;;;;5052257;28;20451;-70
2024/02/23 01:55:24;;;;;;;56.30;2.53;;;;;;;;;;5052338;28;20469;-70
2024/02/23 01:57:52;;;;;;;56.40;2.70;;;;;;;;;;5052568;28;20447;-70
2024/02/23 02:00:20;;;;;;;56.70;2.60;;;;;;;;;;5051830;28;21052;-70
2024/02/23 02:02:48;;;;;;;61.27;2.90;;;;;;;;;;5051740;28;20454;-70
2024/02/23 02:05:15;;;;;;;55.67;2.30;;;;;;;;;;5051975;28;20481;-70
2024/02/23 02:07:43;;;;;;;56.47;2.70;;;;;;;;;;5051807;28;20456;-70
2024/02/23 02:10:11;;;;;;;55.97;2.50;;;;;;;;;;5052081;28;20448;-70
2024/02/23 02:12:38;;;;;;;55.90;2.40;;;;;;;;;;5051510;28;20445;-70
2024/02/23 02:15:06;;;;;;;56.53;2.47;;;;;;;;;;5051956;28;20445;-70
2024/02/23 02:17:34;;;;;;;56.77;2.70;;;;;;;;;;5051763;28;20952;-71
2024/02/23 02:20:04;;;;;;;57.07;2.90;;;;;;;;;;5051881;28;20484;-70
2024/02/23 02:22:31;;;;;;;56.33;2.77;;;;;;;;;;5051785;28;20454;-70
2024/02/23 02:24:58;;;;;;;56.73;2.30;;;;;;;;;;5051421;28;20534;-70
2024/02/23 02:27:25;;;;;;;56.63;2.90;;;;;;;;;;5052328;28;20820;-70
2024/02/23 02:29:52;;;;;;;58.57;2.60;;;;;;;;;;5051781;28;20532;-69
2024/02/23 02:32:19;;;;;;;57.63;2.77;;;;;;;;;;5051942;28;20816;-70
2024/02/23 02:34:48;;;;;;;55.87;2.23;;;;;;;;;;5050808;28;20464;-70
2024/02/23 02:37:15;;;;;;;55.90;2.50;;;;;;;;;;5051545;28;20452;-69
2024/02/23 02:39:42;;;;;;;57.90;2.70;;;;;;;;;;5051433;28;20490;-69
2024/02/23 02:42:09;;;;;;;55.57;2.27;;;;;;;;;;5051737;28;20659;-69
2024/02/23 02:44:36;;;;;;;56.57;2.80;;;;;;;;;;5050662;28;20957;-70
2024/02/23 02:47:04;;;;;;;55.70;2.30;;;;;;;;;;5051450;28;20468;-71
2024/02/23 02:49:31;;;;;;;55.67;2.10;;;;;;;;;;5051307;28;20908;-70
2024/02/23 02:51:59;;;;;;;58.33;2.57;;;;;;;;;;5051581;28;20491;-70
2024/02/23 02:54:26;;;;;;;59.40;2.70;;;;;;;;;;5051411;28;20452;-69
2024/02/23 02:56:54;;;;;;;56.97;2.60;;;;;;;;;;5051487;28;20470;-69
2024/02/23 02:59:21;;;;;;;58.60;2.67;;;;;;;;;;5051463;28;20482;-70
2024/02/23 03:01:48;;;;;;;57.30;2.80;;;;;;;;;;5050689;28;20455;-70
2024/02/23 03:04:15;;;;;;;56.57;2.80;;;;;;;;;;5050774;28;20455;-69
2024/02/23 03:06:42;;;;;;;58.57;2.87;;;;;;;;;;5051126;28;20906;-69
2024/02/23 03:09:11;;;;;;;58.07;3.00;;;;;;;;;;5051363;28;20449;-69
2024/02/23 03:11:38;;;;;;;57.73;2.60;;;;;;;;;;5051167;28;20815;-70
2024/02/23 03:14:06;;;;;;;56.60;2.70;;;;;;;;;;5051057;28;20514;-70
2024/02/23 03:16:34;;;;;;;56.00;2.70;;;;;;;;;;5050764;28;20473;-70
2024/02/23 03:19:01;;;;;;;56.27;2.40;;;;;;;;;;5050968;28;20488;-70
2024/02/23 03:21:28;;;;;;;56.27;2.50;;;;;;;;;;5051276;28;20798;-69
2024/02/23 03:23:55;;;;;;;57.90;3.23;;;;;;;;;;5051038;28;20444;-70
2024/02/23 03:26:24;;;;;;;56.40;2.90;;;;;;;;;;5057808;28;20468;-69
2024/02/23 03:28:51;;;;;;;56.30;2.33;;;;;;;;;;5070645;28;20453;-70
2024/02/23 03:31:18;;;;;;;55.80;2.90;;;;;;;;;;5071064;28;20447;-69
2024/02/23 03:33:45;;;;;;;59.07;2.70;;;;;;;;;;5070780;28;20466;-70
2024/02/23 03:36:12;;;;;;;56.10;2.50;;;;;;;;;;5071014;28;20469;-69
2024/02/23 03:38:39;;;;;;;55.70;2.50;;;;;;;;;;5070891;28;20766;-70
2024/02/23 03:41:07;;;;;;;55.80;3.00;;;;;;;;;;5071102;28;20494;-70
2024/02/23 03:43:37;;;;;;;56.00;2.37;;;;;;;;;;5070499;28;20453;-69
2024/02/23 03:46:04;;;;;;;55.97;2.50;;;;;;;;;;5072282;28;21086;-69
2024/02/23 03:48:32;;;;;;;55.77;2.50;;;;;;;;;;5074740;28;20815;-70
2024/02/23 03:50:59;;;;;;;57.70;2.67;;;;;;;;;;5074476;28;20451;-71
2024/02/23 03:53:26;;;;;;;55.43;2.30;;;;;;;;;;5074563;28;20447;-70
2024/02/23 03:55:53;;;;;;;57.13;3.00;;;;;;;;;;5074053;28;20467;-70
2024/02/23 03:58:20;;;;;;;55.37;2.20;;;;;;;;;;5074105;28;20455;-70
2024/02/23 04:00:49;;;;;;;56.17;2.60;;;;;;;;;;5074493;28;20498;-70
2024/02/23 04:03:16;;;;;;;57.07;3.07;;;;;;;;;;5073981;28;20951;-70
2024/02/23 04:05:43;;;;;;;58.30;2.73;;;;;;;;;;5074567;28;20477;-69
2024/02/23 04:08:10;;;;;;;55.90;2.80;;;;;;;;;;5074212;28;20448;-68
2024/02/23 04:10:37;;;;;;;56.00;2.40;;;;;;;;;;5074107;28;20451;-69
2024/02/23 04:13:04;;;;;;;57.80;2.77;;;;;;;;;;5073921;28;20447;-68
2024/02/23 04:15:31;;;;;;;57.30;2.80;;;;;;;;;;5073989;28;20472;-70
2024/02/23 04:18:00;;;;;;;56.97;2.80;;;;;;;;;;5074104;28;20448;-69
2024/02/23 04:20:27;;;;;;;56.27;2.43;;;;;;;;;;5073808;28;20491;-68
2024/02/23 04:22:54;;;;;;;59.53;2.70;;;;;;;;;;5073637;28;20452;-69
2024/02/23 04:25:21;;;;;;;55.77;2.60;;;;;;;;;;5074076;28;20470;-69
2024/02/23 04:27:48;;;;;;;58.97;2.47;;;;;;;;;;5073583;28;20449;-70
2024/02/23 04:30:15;;;;;;;56.00;2.30;;;;;;;;;;5074014;28;20448;-69
2024/02/23 04:32:44;;;;;;;58.27;2.73;;;;;;;;;;5073512;28;20485;-69
2024/02/23 04:35:12;;;;;;;57.17;2.40;;;;;;;;;;5073642;28;20522;-68
2024/02/23 04:37:40;;;;;;;56.40;2.43;;;;;;;;;;5073934;28;20531;-69
2024/02/23 04:40:07;;;;;;;55.90;2.90;;;;;;;;;;5073531;28;20552;-69
2024/02/23 04:42:34;;;;;;;56.20;2.70;;;;;;;;;;5073519;28;20448;-70
2024/02/23 04:45:01;;;;;;;55.90;2.40;;;;;;;;;;5073499;28;20958;-69
2024/02/23 04:47:28;;;;;;;56.90;2.33;;;;;;;;;;5073749;28;20450;-69
2024/02/23 04:49:56;;;;;;;56.17;2.80;;;;;;;;;;5073292;28;20447;-70
2024/02/23 04:52:24;;;;;;;56.30;2.40;;;;;;;;;;5073253;28;20452;-70
2024/02/23 04:54:51;;;;;;;57.13;2.70;;;;;;;;;;5073228;28;20453;-70
2024/02/23 04:57:18;;;;;;;56.40;2.57;;;;;;;;;;5073030;28;20536;-71
2024/02/23 04:59:45;;;;;;;55.60;2.30;;;;;;;;;;5073185;28;20484;-70
2024/02/23 05:02:13;;;;;;;55.70;2.37;;;;;;;;;;5073256;28;20455;-70
2024/02/23 05:04:40;;;;;;;56.53;2.57;;;;;;;;;;5073161;28;20539;-69
2024/02/23 05:07:07;;;;;;;55.87;2.30;;;;;;;;;;5073078;28;20464;-69
2024/02/23 05:09:35;;;;;;;58.03;2.67;;;;;;;;;;5073305;28;20544;-69
2024/02/23 05:12:03;;;;;;;59.20;2.83;;;;;;;;;;5064932;28;20472;-69
2024/02/23 05:14:30;;;;;;;56.30;2.80;;;;;;;;;;5072674;28;20451;-69
2024/02/23 05:16:57;;;;;;;56.70;2.77;;;;;;;;;;5072963;28;20911;-69
2024/02/23 05:19:24;;;;;;;56.20;2.30;;;;;;;;;;5072914;28;20458;-69
2024/02/23 05:21:51;;;;;;;56.10;2.60;;;;;;;;;;5071022;28;20454;-69
2024/02/23 05:24:18;;;;;;;59.97;2.73;;;;;;;;;;5052638;28;20449;-70
2024/02/23 05:26:47;;;;;;;57.60;2.77;;;;;;;;;;5052612;28;20997;-69
2024/02/23 05:29:19;;;;;;;57.17;2.67;;;;;;;;;;5052712;28;20479;-69
2024/02/23 05:31:47;;;;;;;56.37;2.60;;;;;;;;;;5052867;28;20933;-69
2024/02/23 05:34:14;;;;;;;56.83;2.60;;;;;;;;;;5052167;28;20509;-69
2024/02/23 05:36:41;;;;;;;56.13;2.57;;;;;;;;;;5052591;28;20464;-69
2024/02/23 05:39:09;;;;;;;56.80;2.80;;;;;;;;;;5052716;28;20445;-69
2024/02/23 05:41:36;;;;;;;56.30;3.20;;;;;;;;;;5052660;28;20992;-69
2024/02/23 05:44:05;;;;;;;55.90;2.20;;;;;;;;;;5052344;28;20441;-70
2024/02/23 05:46:33;;;;;;;56.47;2.30;;;;;;;;;;5052391;28;20480;-69
2024/02/23 05:49:00;;;;;;;57.40;2.90;;;;;;;;;;5052082;28;20445;-69
2024/02/23 05:51:29;;;;;;;57.87;2.53;;;;;;;;;;5052483;28;20447;-69
2024/02/23 05:53:56;;;;;;;58.80;2.73;;;;;;;;;;5052152;28;20452;-70
2024/02/23 05:56:23;;;;;;;57.43;2.63;;;;;;;;;;5052212;28;20464;-69
2024/02/23 05:58:50;;;;;;;60.23;3.17;;;;;;;;;;5052157;28;20449;-69
2024/02/23 06:01:19;;;;;;;57.90;2.93;;;;;;;;;;5051855;28;21023;-69
2024/02/23 06:03:46;;;;;;;57.87;3.07;;;;;;;;;;5051747;28;20445;-69
2024/02/23 06:06:14;;;;;;;57.40;3.07;;;;;;;;;;5052222;28;20476;-69
2024/02/23 06:08:41;;;;;;;58.90;3.00;;;;;;;;;;5051462;28;20455;-69
2024/02/23 06:11:10;;;;;;;56.47;2.87;;;;;;;;;;5052066;28;20443;-69
2024/02/23 06:13:37;;;;;;;55.97;2.73;;;;;;;;;;5051992;28;20490;-70
2024/02/23 06:16:05;;;;;;;59.30;3.37;;;;;;;;;;5051718;28;20464;-69
2024/02/23 06:18:34;;;;;;;57.87;3.00;;;;;;;;;;5052237;28;20445;-69
2024/02/23 06:21:02;;;;;;;56.47;3.37;;;;;;;;;;5051791;28;20488;-68
2024/02/23 06:23:29;;;;;;;56.57;3.20;;;;;;;;;;5052265;28;20460;-69
2024/02/23 06:25:56;;;;;;;59.20;3.30;;;;;;;;;;5054438;28;20500;-69
2024/02/23 06:28:23;;;;;;;56.30;2.80;;;;;;;;;;5071399;28;20972;-69
2024/02/23 06:30:50;;;;;;;58.23;3.30;;;;;;;;;;5071867;28;20439;-68
2024/02/23 06:33:17;;;;;;;56.47;3.27;;;;;;;;;;5071458;28;20451;-68
2024/02/23 06:35:46;;;;;;;56.40;2.87;;;;;;;;;;5071607;28;20838;-69
2024/02/23 06:38:13;;;;;;;55.70;2.90;;;;;;;;;;5071659;28;20891;-69
2024/02/23 06:40:40;;;;;;;63.40;3.67;;;;;;;;;;5071858;28;20491;-69
2024/02/23 06:43:07;;;;;;;60.87;3.30;;;;;;;;;;5063382;28;20455;-69
2024/02/23 06:45:34;;;;;;;60.70;3.40;;;;;;;;;;5071675;28;20556;-69
2024/02/23 06:48:01;;;;;;;58.40;3.50;;;;;;;;;;5071432;28;20446;-69
2024/02/23 06:50:29;;;;;;;57.17;3.17;;;;;;;;;;5071478;28;20450;-69
2024/02/23 06:52:57;;;;;;;56.87;2.97;;;;;;;;;;5071798;28;20444;-69
2024/02/23 06:55:24;;;;;;;56.90;3.53;;;;;;;;;;5071281;28;20471;-70
2024/02/23 06:57:51;;;;;;;65.40;7.07;;;;;;;;;;5071261;28;20452;-69
2024/02/23 07:00:18;;;;;;;57.37;4.13;;;;;;;;;;5067068;28;20844;-70
2024/02/23 07:02:45;;;;;;;57.77;4.53;;;;;;;;;;5051366;28;20448;-68
2024/02/23 07:05:13;;;;;;;56.77;3.30;;;;;;;;;;5051376;28;20469;-69
2024/02/23 07:07:41;;;;;;;57.10;3.97;;;;;;;;;;5051225;28;20977;-69
2024/02/23 07:10:10;;;;;;;57.60;3.97;;;;;;;;;;5062917;28;20929;-69
2024/02/23 07:12:37;;;;;;;56.20;3.47;;;;;;;;;;5071458;28;20466;-70
2024/02/23 07:15:05;;;;;;;57.53;3.13;;;;;;;;;;5071249;28;20442;-70
2024/02/23 07:17:32;;;;;;;57.50;3.60;;;;;;;;;;5071162;28;20444;-70
2024/02/23 07:20:05;;;;;;;57.67;3.30;;;;;;;;;;5072512;28;20895;-70
2024/02/23 07:22:32;;;;;;;57.33;3.20;;;;;;;;;;5075138;28;20461;-69
2024/02/23 07:25:01;;;;;;;56.40;3.07;;;;;;;;;;5074968;28;20487;-70
2024/02/23 07:27:30;;;;;;;59.80;3.40;;;;;;;;;;5075106;28;20475;-69
2024/02/23 07:29:57;;;;;;;58.57;3.70;;;;;;;;;;5074965;28;20451;-69
2024/02/23 07:32:25;;;;;;;57.90;3.20;;;;;;;;;;5075212;28;20446;-69
2024/02/23 07:34:52;;;;;;;63.23;4.47;;;;;;;;;;5074474;28;20467;-70
2024/02/23 07:37:19;;;;;;;58.40;3.50;;;;;;;;;;5075284;28;20552;-69
2024/02/23 07:39:46;;;;;;;58.40;4.00;;;;;;;;;;5074923;28;20450;-69
2024/02/23 07:42:18;;;;;;;55.77;2.70;;;;;;;;;;5074643;28;20490;-69
2024/02/23 07:44:46;;;;;;;58.37;3.53;;;;;;;;;;5074727;28;20488;-70
2024/02/23 07:47:13;;;;;;;57.20;2.87;;;;;;;;;;5074680;28;20470;-70
2024/02/23 07:49:41;;;;;;;56.20;3.53;;;;;;;;;;5074440;28;20535;-69
2024/02/23 07:52:08;;;;;;;60.07;3.50;;;;;;;;;;5074538;28;20851;-68
2024/02/23 07:54:35;;;;;;;57.50;3.10;;;;;;;;;;5074479;28;20443;-71
2024/02/23 07:57:04;;;;;;;58.13;3.20;;;;;;;;;;5072579;28;20468;-69
2024/02/23 07:59:31;;;;;;;55.90;2.57;;;;;;;;;;5054790;28;20455;-69
2024/02/23 08:01:59;;;;;;;55.87;2.50;;;;;;;;;;5054339;28;20493;-69
2024/02/23 08:04:27;;;;;;;55.90;2.50;;;;;;;;;;5054284;28;20452;-69
2024/02/23 08:06:54;;;;;;;58.97;3.23;;;;;;;;;;5054711;28;20472;-70
2024/02/23 08:09:22;;;;;;;59.20;3.10;;;;;;;;;;5054490;28;20457;-69
2024/02/23 08:11:49;;;;;;;56.40;2.67;;;;;;;;;;5054304;28;20851;-69
2024/02/23 08:14:16;;;;;;;57.20;2.90;;;;;;;;;;5054153;28;20449;-69
2024/02/23 08:16:43;;;;;;;56.77;3.10;;;;;;;;;;5054192;28;20464;-70
2024/02/23 08:19:12;;;;;;;56.27;2.70;;;;;;;;;;5054614;28;20452;-67
2024/02/23 08:21:39;;;;;;;55.97;2.60;;;;;;;;;;5053965;28;21024;-68
2024/02/23 08:24:07;;;;;;;60.67;2.92;;;;;;;;;;5053454;28;20526;-70
2024/02/23 08:26:34;;;;;;;57.43;2.50;;;;;;;;;;5053898;28;20722;-70
2024/02/23 08:29:01;;;;;;;55.80;2.63;;;;;;;;;;5053971;28;20445;-69
2024/02/23 08:31:28;;;;;;;57.13;2.97;;;;;;;;;;5053107;28;20444;-69
2024/02/23 08:33:55;;;;;;;58.10;3.23;;;;;;;;;;5053483;28;20546;-69
2024/02/23 08:36:24;;;;;;;57.20;2.70;;;;;;;;;;5053646;28;20981;-69
2024/02/23 08:38:51;;;;;;;56.90;2.90;;;;;;;;;;5053811;28;20452;-69
2024/02/23 08:41:18;;;;;;;57.37;2.80;;;;;;;;;;5053809;28;20489;-70
2024/02/23 08:43:46;;;;;;;56.83;2.90;;;;;;;;;;5053153;28;20453;-69
2024/02/23 08:46:13;;;;;;;60.03;3.07;;;;;;;;;;5065519;28;20494;-69
2024/02/23 08:48:40;;;;;;;59.20;2.63;;;;;;;;;;5058249;28;20452;-69
2024/02/23 08:51:07;;;;;;;56.60;2.70;;;;;;;;;;5053688;28;20446;-69
2024/02/23 08:53:35;;;;;;;58.17;3.03;;;;;;;;;;5053528;28;20805;-69
2024/02/23 08:56:02;;;;;;;60.43;2.77;;;;;;;;;;5053361;28;20468;-68
2024/02/23 08:58:29;;;;;;;55.67;2.37;;;;;;;;;;5059072;28;20444;-68
2024/02/23 09:00:56;;;;;;;55.77;2.57;;;;;;;;;;5073462;28;20490;-70
2024/02/23 09:03:23;;;;;;;60.50;3.10;;;;;;;;;;5073254;28;20451;-69
2024/02/23 09:05:51;;;;;;;57.60;3.03;;;;;;;;;;5073216;28;20497;-70
2024/02/23 09:08:18;;;;;;;61.77;2.73;;;;;;;;;;5073236;28;20449;-70
2024/02/23 09:10:46;;;;;;;60.07;3.07;;;;;;;;;;5073341;28;20448;-69
2024/02/23 09:13:15;;;;;;;56.60;2.60;;;;;;;;;;5072910;28;20441;-70
2024/02/23 09:15:42;;;;;;;55.90;2.30;;;;;;;;;;5073194;28;20842;-70
2024/02/23 09:18:09;;;;;;;58.37;2.60;;;;;;;;;;5073026;28;20448;-70
2024/02/23 09:20:37;;;;;;;60.97;2.80;;;;;;;;;;5072840;28;20445;-70
2024/02/23 09:23:04;;;;;;;56.80;2.60;;;;;;;;;;5073158;28;20510;-70
2024/02/23 09:25:31;;;;;;;55.97;2.40;;;;;;;;;;5072661;28;20980;-69
2024/02/23 09:27:59;;;;;;;56.90;2.40;;;;;;;;;;5072823;28;20457;-68
2024/02/23 09:30:27;;;;;;;58.50;2.70;;;;;;;;;;5072811;28;20451;-68
2024/02/23 09:32:54;;;;;;;57.43;2.80;;;;;;;;;;5072933;28;20440;-68
2024/02/23 09:35:21;;;;;;;62.13;3.17;;;;;;;;;;5072497;28;20482;-70
2024/02/23 09:37:48;;;;;;;56.97;2.47;;;;;;;;;;5072654;28;20501;-68
2024/02/23 09:40:16;;;;;;;57.07;2.70;;;;;;;;;;5072631;28;20448;-70
2024/02/23 09:42:43;;;;;;;57.40;2.80;;;;;;;;;;5072563;28;20501;-69
2024/02/23 09:45:13;;;;;;;56.07;2.47;;;;;;;;;;5072677;28;20444;-69
2024/02/23 09:47:42;;;;;;;56.47;3.20;;;;;;;;;;5072468;28;20449;-69
2024/02/23 09:50:10;;;;;;;58.23;2.90;;;;;;;;;;5073010;28;20534;-70
2024/02/23 09:52:37;;;;;;;57.70;2.80;;;;;;;;;;5072760;28;20793;-73
2024/02/23 09:55:04;;;;;;;56.17;2.57;;;;;;;;;;5072657;28;20458;-70
2024/02/23 09:57:32;;;;;;;56.87;2.53;;;;;;;;;;5072410;28;20441;-70
2024/02/23 09:59:59;;;;;;;55.50;2.43;;;;;;;;;;5072172;28;20452;-70
2024/02/23 10:02:28;;;;;;;57.07;2.87;;;;;;;;;;5072175;28;20846;-70
2024/02/23 10:04:57;;;;;;;55.87;2.50;;;;;;;;;;5071789;28;20933;-71
2024/02/23 10:07:25;;;;;;;55.90;2.57;;;;;;;;;;5072293;28;20455;-69
2024/02/23 10:09:52;;;;;;;57.60;2.97;;;;;;;;;;5072196;28;20449;-71
2024/02/23 10:12:19;;;;;;;56.90;2.70;;;;;;;;;;5071897;28;20955;-69
2024/02/23 10:14:46;;;;;;;55.80;2.30;;;;;;;;;;5071800;28;20448;-70
2024/02/23 10:17:13;;;;;;;56.80;2.43;;;;;;;;;;5071873;28;20491;-70
2024/02/23 10:19:42;;;;;;;56.07;2.23;;;;;;;;;;5071732;28;20454;-70
2024/02/23 10:22:09;;;;;;;58.47;2.70;;;;;;;;;;5071882;28;20525;-69
2024/02/23 10:24:38;;;;;;;56.60;2.40;;;;;;;;;;5071561;28;20507;-70
2024/02/23 10:27:06;;;;;;;56.27;2.50;;;;;;;;;;5071653;28;20475;-70
2024/02/23 10:29:33;;;;;;;56.10;2.50;;;;;;;;;;5071703;28;20459;-70
2024/02/23 10:32:00;;;;;;;57.67;2.60;;;;;;;;;;5071903;28;20472;-70
2024/02/23 10:34:28;;;;;;;55.60;2.20;;;;;;;;;;5071846;28;20899;-68
2024/02/23 10:36:57;;;;;;;57.53;2.80;;;;;;;;;;5071655;28;20469;-69
2024/02/23 10:39:26;;;;;;;56.93;2.70;;;;;;;;;;5071922;28;20767;-70
2024/02/23 10:41:58;;;;;;;61.63;2.70;;;;;;;;;;5071673;28;21022;-70
2024/02/23 10:44:26;;;;;;;56.87;2.47;;;;;;;;;;5071829;28;20863;-70
2024/02/23 10:46:54;;;;;;;57.90;3.13;;;;;;;;;;5071506;28;20987;-69
2024/02/23 10:49:22;;;;;;;57.17;2.40;;;;;;;;;;5071782;28;20447;-70
2024/02/23 10:51:50;;;;;;;57.07;2.80;;;;;;;;;;5071782;28;20486;-70
2024/02/23 10:54:21;;;;;;;56.80;2.43;;;;;;;;;;5071412;28;20524;-69
2024/02/23 10:56:48;;;;;;;56.83;2.50;;;;;;;;;;5072149;28;20476;-70
2024/02/23 10:59:18;;;;;;;56.53;2.27;;;;;;;;;;5071447;28;20453;-70
2024/02/23 11:01:45;;;;;;;56.77;2.70;;;;;;;;;;5071668;28;20484;-71
2024/02/23 11:04:12;;;;;;;59.30;2.60;;;;;;;;;;5071506;28;20445;-70
2024/02/23 11:06:39;;;;;;;57.53;3.27;;;;;;;;;;5071604;28;20456;-69
2024/02/23 11:09:08;;;;;;;57.77;2.80;;;;;;;;;;5071307;28;20452;-69
2024/02/23 11:11:38;;;;;;;56.37;2.40;;;;;;;;;;5071275;28;20930;-71
2024/02/23 11:14:09;;;;;;;57.50;2.37;;;;;;;;;;5071322;28;20449;-70
2024/02/23 11:16:40;;;;;;;56.97;3.27;;;;;;;;;;5071449;28;20468;-69
2024/02/23 11:19:09;;;;;;;58.00;2.97;;;;;;;;;;5071340;28;20503;-70
2024/02/23 11:21:37;;;;;;;57.27;2.60;;;;;;;;;;5071222;28;20531;-70
2024/02/23 11:24:05;;;;;;;56.10;2.60;;;;;;;;;;5071114;28;20453;-70
2024/02/23 11:26:33;;;;;;;58.83;2.77;;;;;;;;;;5071236;28;20474;-70
2024/02/23 11:29:11;;;;;;;56.30;2.63;;;;;;;;;;5071275;28;20453;-70
2024/02/23 11:31:38;;;;;;;59.50;3.07;;;;;;;;;;5071410;28;20452;-71
2024/02/23 11:34:09;;;;;;;58.57;2.50;;;;;;;;;;5070855;28;20455;-70
2024/02/23 11:36:37;;;;;;;61.90;2.57;;;;;;;;;;5071171;28;20468;-69
2024/02/23 11:39:05;;;;;;;56.87;2.23;;;;;;;;;;5071347;28;20449;-71
2024/02/23 11:41:32;;;;;;;55.80;2.23;;;;;;;;;;5070971;28;20494;-70
2024/02/23 11:43:59;;;;;;;61.97;3.37;;;;;;;;;;5070932;28;20462;-70
2024/02/23 11:46:28;;;;;;;56.07;2.50;;;;;;;;;;5071622;28;20460;-71
2024/02/23 11:48:55;;;;;;;58.60;3.03;;;;;;;;;;5071319;28;20445;-70
2024/02/23 11:51:23;;;;;;;58.33;3.10;;;;;;;;;;5070866;28;20450;-71
2024/02/23 11:53:50;;;;;;;57.00;2.97;;;;;;;;;;5055700;28;20457;-72
2024/02/23 11:56:18;;;;;;;55.37;2.37;;;;;;;;;;5051392;28;20475;-71
2024/02/23 11:58:45;;;;;;;58.90;2.67;;;;;;;;;;5066157;28;20457;-70
2024/02/23 12:01:12;;;;;;;57.67;3.10;;;;;;;;;;5070881;28;20448;-70
2024/02/23 12:03:41;;;;;;;58.07;2.93;;;;;;;;;;5070587;28;20493;-70
2024/02/23 12:06:09;;;;;;;56.10;2.60;;;;;;;;;;5071231;28;20886;-69
2024/02/23 12:08:38;;;;;;;57.87;2.83;;;;;;;;;;5074654;28;20461;-70
2024/02/23 12:11:07;;;;;;;56.80;2.60;;;;;;;;;;5074370;28;21003;-69
2024/02/23 12:13:34;;;;;;;57.03;2.80;;;;;;;;;;5074244;28;20457;-69
2024/02/23 12:16:01;;;;;;;58.23;3.20;;;;;;;;;;5074464;28;20474;-69
2024/02/23 12:18:29;;;;;;;57.53;2.57;;;;;;;;;;5074374;28;20538;-70
2024/02/23 12:21:02;;;;;;;58.27;3.40;;;;;;;;;;5074416;28;20935;-70
2024/02/23 12:23:39;;;;;;;59.50;2.63;;;;;;;;;;5074085;28;20488;-70
2024/02/23 12:26:06;;;;;;;57.50;2.47;;;;;;;;;;5074221;28;20477;-70
2024/02/23 12:28:33;;;;;;;57.87;2.40;;;;;;;;;;5074076;28;20938;-69
2024/02/23 12:31:01;;;;;;;59.60;2.43;;;;;;;;;;5073989;28;20450;-69
2024/02/23 12:33:29;;;;;;;56.70;2.73;;;;;;;;;;5073785;28;20451;-70
2024/02/23 12:35:56;;;;;;;56.87;2.63;;;;;;;;;;5074294;28;20860;-70
2024/02/23 12:38:25;;;;;;;58.23;2.83;;;;;;;;;;5073802;28;20480;-70
2024/02/23 12:40:52;;;;;;;56.77;2.50;;;;;;;;;;5074162;28;20452;-69
2024/02/23 12:43:21;;;;;;;57.77;2.10;;;;;;;;;;5073387;28;20839;-71
2024/02/23 12:45:50;;;;;;;58.63;2.43;;;;;;;;;;5074052;28;20471;-70
2024/02/23 12:48:17;;;;;;;58.90;2.70;;;;;;;;;;5073538;28;20492;-71
2024/02/23 12:50:44;;;;;;;58.07;3.10;;;;;;;;;;5073615;28;20455;-69
2024/02/23 12:53:12;;;;;;;56.20;2.60;;;;;;;;;;5073383;28;21094;-69
2024/02/23 12:55:41;;;;;;;66.23;2.70;;;;;;;;;;5073691;28;20478;-70
2024/02/23 12:58:08;;;;;;;56.80;2.57;;;;;;;;;;5073430;28;20867;-69
2024/02/23 13:00:35;;;;;;;63.40;2.70;;;;;;;;;;5073408;28;20938;-71
2024/02/23 13:03:02;;;;;;;57.80;2.67;;;;;;;;;;5073245;28;20501;-69
2024/02/23 13:05:29;;;;;;;56.80;2.70;;;;;;;;;;5073397;28;20560;-70
2024/02/23 13:07:57;;;;;;;59.33;3.00;;;;;;;;;;5073334;28;20456;-69
2024/02/23 13:10:24;;;;;;;57.57;2.70;;;;;;;;;;5053315;28;20459;-69
2024/02/23 13:12:53;;;;;;;63.23;2.70;;;;;;;;;;5053041;28;20443;-70
2024/02/23 13:15:20;;;;;;;58.57;2.63;;;;;;;;;;5053347;28;20479;-70
2024/02/23 13:17:47;;;;;;;57.30;2.60;;;;;;;;;;5052829;28;20952;-70
2024/02/23 13:20:14;;;;;;;61.33;3.07;;;;;;;;;;5053015;28;20452;-70
2024/02/23 13:22:41;;;;;;;61.87;3.47;;;;;;;;;;5052742;28;20496;-70
2024/02/23 13:25:08;;;;;;;56.20;2.60;;;;;;;;;;5053246;28;20866;-70
2024/02/23 13:27:35;;;;;;;61.70;2.30;;;;;;;;;;5053174;28;20542;-70
2024/02/23 13:30:05;;;;;;;57.77;2.80;;;;;;;;;;5052881;28;20443;-69
2024/02/23 13:32:33;;;;;;;58.07;2.73;;;;;;;;;;5052924;28;20452;-70
2024/02/23 13:35:03;;;;;;;55.70;2.20;;;;;;;;;;5052720;28;20465;-70
2024/02/23 13:37:31;;;;;;;56.47;2.50;;;;;;;;;;5052829;28;20543;-70
2024/02/23 13:39:58;;;;;;;59.53;2.50;;;;;;;;;;5052792;28;20458;-70
2024/02/23 13:42:25;;;;;;;57.60;2.73;;;;;;;;;;5052885;28;20487;-69
2024/02/23 13:44:52;;;;;;;58.30;2.83;;;;;;;;;;5052607;28;20537;-70
2024/02/23 13:47:20;;;;;;;58.27;3.70;;;;;;;;;;5052806;28;20453;-69
2024/02/23 13:49:47;;;;;;;56.97;2.87;;;;;;;;;;5052570;28;20461;-70
2024/02/23 13:52:15;;;;;;;57.17;2.87;;;;;;;;;;5052316;28;20470;-70
2024/02/23 13:54:42;;;;;;;57.40;2.73;;;;;;;;;;5052762;28;20459;-70
2024/02/23 13:57:09;;;;;;;56.13;2.80;;;;;;;;;;5052232;28;20480;-70
2024/02/23 13:59:36;;;;;;;56.80;2.70;;;;;;;;;;5052323;28;20446;-70
2024/02/23 14:02:04;;;;;;;61.63;3.00;;;;;;;;;;5052298;28;20451;-70
2024/02/23 14:04:32;;;;;;;57.20;2.60;;;;;;;;;;5052168;28;20945;-70
2024/02/23 14:06:59;;;;;;;57.00;3.40;;;;;;;;;;5052405;28;20466;-70
2024/02/23 14:09:26;;;;;;;60.77;2.70;;;;;;;;;;5052243;28;20457;-69
2024/02/23 14:11:53;;;;;;;55.97;2.80;;;;;;;;;;5052519;28;20459;-68
2024/02/23 14:14:21;;;;;;;56.80;2.47;;;;;;;;;;5052195;28;20443;-70
2024/02/23 14:16:48;;;;;;;56.70;2.63;;;;;;;;;;5052106;28;20475;-69
2024/02/23 14:19:15;;;;;;;57.57;2.70;;;;;;;;;;5052393;28;20461;-70
2024/02/23 14:21:43;;;;;;;59.10;2.70;;;;;;;;;;5052533;28;20447;-69
2024/02/23 14:24:10;;;;;;;59.97;2.93;;;;;;;;;;5051997;28;20501;-71
2024/02/23 14:26:37;;;;;;;58.47;2.97;;;;;;;;;;5051586;28;21005;-70
2024/02/23 14:29:04;;;;;;;55.57;2.50;;;;;;;;;;5050999;28;20944;-71
2024/02/23 14:31:32;;;;;;;61.50;3.23;;;;;;;;;;5051737;28;20956;-70
2024/02/23 14:33:59;;;;;;;58.07;3.23;;;;;;;;;;5051537;28;20482;-70